Pagina principale
METAR-TAF:

METAR-TAF

Aeroporti :

Passo di Resia, Italia

latitudine: 46-50N, longitudine: 010-30E, altezza: 1800 m

Osservazione

Il bollettino è stato emesso 55 minuti fa, alle 18:55 UTC
Vento 4 kt da sud/sud-ovest
Temperature 7°C
Umidità 93%
Pressione 1003 hPa
Visibilità 10 km o più
Cielo coperto ad un'altezza di 1500 ft

METAR: LIVE 191855Z 21004KT 9999 OVC015 07/06 Q1003

Ora: 21:50 (19:50 UTC)


TAF: mancante

Osservazioni e previsioni meteorologiche di più di 4000 aeroporti (messaggi METAR e TAF).

Le stazioni disponibili sono rappresentate dai dischi gialli e rossi sulla carta.

Puntare il mouse per vedere il nome della stazione.

Clicca sopra per visualizzare le osservazioni e previsioni meteorologiche.

Per cambiare la mappa : fare clic sui pulsanti verdi con una croce nera per ingrandire, il pulsante verde con un trattino per diminuire, o sulla freccia verde per le mappe adiacenti.


METAR-TAF: